sensor_id;sensor_type;location;lat;lon;timestamp;temperature;humidity
45319;DHT22;31057;48.498;32.260;2024-01-30T00:01:46;-2.40;99.90
45319;DHT22;31057;48.498;32.260;2024-01-30T00:03:48;-2.40;99.90
45319;DHT22;31057;48.498;32.260;2024-01-30T00:05:50;-2.50;99.90
45319;DHT22;31057;48.498;32.260;2024-01-30T00:07:52;-2.60;99.90
45319;DHT22;31057;48.498;32.260;2024-01-30T00:09:54;-2.50;99.90
45319;DHT22;31057;48.498;32.260;2024-01-30T00:11:56;-2.50;99.90
45319;DHT22;31057;48.498;32.260;2024-01-30T00:13:58;-2.60;99.90
45319;DHT22;31057;48.498;32.260;2024-01-30T00:16:00;-2.50;99.90
45319;DHT22;31057;48.498;32.260;2024-01-30T00:18:02;-2.50;99.90
45319;DHT22;31057;48.498;32.260;2024-01-30T00:20:04;-2.50;99.90
45319;DHT22;31057;48.498;32.260;2024-01-30T00:22:07;-2.50;99.90
45319;DHT22;31057;48.498;32.260;2024-01-30T00:24:09;-2.50;99.90
45319;DHT22;31057;48.498;32.260;2024-01-30T00:26:11;-2.60;99.90
45319;DHT22;31057;48.498;32.260;2024-01-30T00:28:13;-2.60;99.90
45319;DHT22;31057;48.498;32.260;2024-01-30T00:30:15;-2.40;99.90
45319;DHT22;31057;48.498;32.260;2024-01-30T00:32:17;-2.40;99.90
45319;DHT22;31057;48.498;32.260;2024-01-30T00:34:20;-2.30;99.90
45319;DHT22;31057;48.498;32.260;2024-01-30T00:36:22;-2.30;99.90
45319;DHT22;31057;48.498;32.260;2024-01-30T00:38:24;-2.30;99.90
45319;DHT22;31057;48.498;32.260;2024-01-30T00:40:26;-2.20;99.90
45319;DHT22;31057;48.498;32.260;2024-01-30T00:42:28;-2.30;99.90
45319;DHT22;31057;48.498;32.260;2024-01-30T00:44:30;-2.20;99.90
45319;DHT22;31057;48.498;32.260;2024-01-30T00:46:32;-2.30;99.90
45319;DHT22;31057;48.498;32.260;2024-01-30T00:48:34;-2.40;99.90
45319;DHT22;31057;48.498;32.260;2024-01-30T00:50:36;-2.50;99.90
45319;DHT22;31057;48.498;32.260;2024-01-30T00:52:37;-2.50;99.90
45319;DHT22;31057;48.498;32.260;2024-01-30T00:54:40;-2.60;99.90
45319;DHT22;31057;48.498;32.260;2024-01-30T00:56:42;-2.50;99.90
45319;DHT22;31057;48.498;32.260;2024-01-30T00:58:44;-2.60;99.90
45319;DHT22;31057;48.498;32.260;2024-01-30T01:00:46;-2.60;99.90
45319;DHT22;31057;48.498;32.260;2024-01-30T01:02:48;-2.50;99.90
45319;DHT22;31057;48.498;32.260;2024-01-30T01:04:50;-2.50;99.90
45319;DHT22;31057;48.498;32.260;2024-01-30T01:06:51;-2.50;99.90
45319;DHT22;31057;48.498;32.260;2024-01-30T01:08:53;-2.60;99.90
45319;DHT22;31057;48.498;32.260;2024-01-30T01:10:55;-2.50;99.90
45319;DHT22;31057;48.498;32.260;2024-01-30T01:12:57;-2.50;99.90
45319;DHT22;31057;48.498;32.260;2024-01-30T01:14:59;-2.50;99.90
45319;DHT22;31057;48.498;32.260;2024-01-30T01:17:01;-2.50;99.90
45319;DHT22;31057;48.498;32.260;2024-01-30T01:19:03;-2.60;99.90
45319;DHT22;31057;48.498;32.260;2024-01-30T01:21:05;-2.60;99.90
45319;DHT22;31057;48.498;32.260;2024-01-30T01:23:07;-2.60;99.90
45319;DHT22;31057;48.498;32.260;2024-01-30T01:25:09;-2.70;99.90
45319;DHT22;31057;48.498;32.260;2024-01-30T01:27:12;-2.60;99.90
45319;DHT22;31057;48.498;32.260;2024-01-30T01:29:13;-2.60;99.90
45319;DHT22;31057;48.498;32.260;2024-01-30T01:31:17;-2.70;99.90
45319;DHT22;31057;48.498;32.260;2024-01-30T01:33:20;-2.60;99.90
45319;DHT22;31057;48.498;32.260;2024-01-30T01:35:22;-2.70;99.90
45319;DHT22;31057;48.498;32.260;2024-01-30T01:37:26;-2.70;99.90
45319;DHT22;31057;48.498;32.260;2024-01-30T01:39:28;-2.80;99.90
45319;DHT22;31057;48.498;32.260;2024-01-30T01:41:30;-2.80;99.90
45319;DHT22;31057;48.498;32.260;2024-01-30T01:43:33;-2.70;99.90
45319;DHT22;31057;48.498;32.260;2024-01-30T01:45:35;-2.80;99.90
45319;DHT22;31057;48.498;32.260;2024-01-30T01:47:36;-2.80;99.90
45319;DHT22;31057;48.498;32.260;2024-01-30T01:49:38;-2.80;99.90
45319;DHT22;31057;48.498;32.260;2024-01-30T01:51:40;-2.80;99.90
45319;DHT22;31057;48.498;32.260;2024-01-30T01:53:43;-2.80;99.90
45319;DHT22;31057;48.498;32.260;2024-01-30T01:55:45;-2.80;99.90
45319;DHT22;31057;48.498;32.260;2024-01-30T01:57:47;-2.80;99.90
45319;DHT22;31057;48.498;32.260;2024-01-30T01:59:49;-2.80;99.90
45319;DHT22;31057;48.498;32.260;2024-01-30T02:01:51;-2.80;99.90
45319;DHT22;31057;48.498;32.260;2024-01-30T02:03:55;-2.80;99.90
45319;DHT22;31057;48.498;32.260;2024-01-30T02:05:57;-2.80;99.90
45319;DHT22;31057;48.498;32.260;2024-01-30T02:08:00;-2.80;99.90
45319;DHT22;31057;48.498;32.260;2024-01-30T02:10:02;-2.80;99.90
45319;DHT22;31057;48.498;32.260;2024-01-30T02:12:05;-2.80;99.90
45319;DHT22;31057;48.498;32.260;2024-01-30T02:14:07;-2.80;99.90
45319;DHT22;31057;48.498;32.260;2024-01-30T02:16:09;-2.80;99.90
45319;DHT22;31057;48.498;32.260;2024-01-30T02:18:12;-2.80;99.90
45319;DHT22;31057;48.498;32.260;2024-01-30T02:20:13;-2.80;99.90
45319;DHT22;31057;48.498;32.260;2024-01-30T02:22:16;-2.80;99.90
45319;DHT22;31057;48.498;32.260;2024-01-30T02:24:18;-2.90;99.90
45319;DHT22;31057;48.498;32.260;2024-01-30T02:26:20;-2.90;99.90
45319;DHT22;31057;48.498;32.260;2024-01-30T02:28:22;-3.00;99.90
45319;DHT22;31057;48.498;32.260;2024-01-30T02:30:23;-2.90;99.90
45319;DHT22;31057;48.498;32.260;2024-01-30T02:32:25;-2.90;99.90
45319;DHT22;31057;48.498;32.260;2024-01-30T02:34:27;-2.80;99.90
45319;DHT22;31057;48.498;32.260;2024-01-30T02:36:29;-2.90;99.90
45319;DHT22;31057;48.498;32.260;2024-01-30T02:38:31;-2.90;99.90
45319;DHT22;31057;48.498;32.260;2024-01-30T02:40:33;-2.90;99.90
45319;DHT22;31057;48.498;32.260;2024-01-30T02:42:35;-2.90;99.90
45319;DHT22;31057;48.498;32.260;2024-01-30T02:44:37;-3.00;99.90
45319;DHT22;31057;48.498;32.260;2024-01-30T02:46:38;-3.00;99.90
45319;DHT22;31057;48.498;32.260;2024-01-30T02:48:40;-3.10;99.90
45319;DHT22;31057;48.498;32.260;2024-01-30T02:50:42;-3.10;99.90
45319;DHT22;31057;48.498;32.260;2024-01-30T02:52:44;-3.20;99.90
45319;DHT22;31057;48.498;32.260;2024-01-30T02:54:46;-3.20;99.90
45319;DHT22;31057;48.498;32.260;2024-01-30T02:56:48;-3.20;99.90
45319;DHT22;31057;48.498;32.260;2024-01-30T02:58:50;-3.10;99.90
45319;DHT22;31057;48.498;32.260;2024-01-30T03:00:52;-3.20;99.90
45319;DHT22;31057;48.498;32.260;2024-01-30T03:02:54;-3.20;99.90
45319;DHT22;31057;48.498;32.260;2024-01-30T03:04:55;-3.30;99.90
45319;DHT22;31057;48.498;32.260;2024-01-30T03:06:57;-3.40;99.90
45319;DHT22;31057;48.498;32.260;2024-01-30T03:08:59;-3.40;99.90
45319;DHT22;31057;48.498;32.260;2024-01-30T03:11:01;-3.20;99.90
45319;DHT22;31057;48.498;32.260;2024-01-30T03:13:03;-3.20;99.90
45319;DHT22;31057;48.498;32.260;2024-01-30T03:15:05;-3.30;99.90
45319;DHT22;31057;48.498;32.260;2024-01-30T03:17:07;-3.20;99.90
45319;DHT22;31057;48.498;32.260;2024-01-30T03:19:09;-3.20;99.90
45319;DHT22;31057;48.498;32.260;2024-01-30T03:21:11;-3.40;99.90
45319;DHT22;31057;48.498;32.260;2024-01-30T03:23:13;-3.30;99.90
45319;DHT22;31057;48.498;32.260;2024-01-30T03:25:15;-3.40;99.90
45319;DHT22;31057;48.498;32.260;2024-01-30T03:27:17;-3.40;99.90
45319;DHT22;31057;48.498;32.260;2024-01-30T03:29:19;-3.40;99.90
45319;DHT22;31057;48.498;32.260;2024-01-30T03:31:21;-3.40;99.90
45319;DHT22;31057;48.498;32.260;2024-01-30T03:33:23;-3.40;99.90
45319;DHT22;31057;48.498;32.260;2024-01-30T03:35:24;-3.40;99.90
45319;DHT22;31057;48.498;32.260;2024-01-30T03:37:26;-3.60;99.90
45319;DHT22;31057;48.498;32.260;2024-01-30T03:39:28;-3.60;99.90
45319;DHT22;31057;48.498;32.260;2024-01-30T03:41:30;-3.50;99.90
45319;DHT22;31057;48.498;32.260;2024-01-30T03:43:32;-3.50;99.90
45319;DHT22;31057;48.498;32.260;2024-01-30T03:45:34;-3.50;99.90
45319;DHT22;31057;48.498;32.260;2024-01-30T03:47:36;-3.50;99.90
45319;DHT22;31057;48.498;32.260;2024-01-30T03:49:38;-3.50;99.90
45319;DHT22;31057;48.498;32.260;2024-01-30T03:51:40;-3.60;99.90
45319;DHT22;31057;48.498;32.260;2024-01-30T03:53:42;-3.50;99.90
45319;DHT22;31057;48.498;32.260;2024-01-30T03:55:44;-3.60;99.90
45319;DHT22;31057;48.498;32.260;2024-01-30T03:57:46;-3.60;99.90
45319;DHT22;31057;48.498;32.260;2024-01-30T03:59:48;-3.60;99.90
45319;DHT22;31057;48.498;32.260;2024-01-30T04:01:50;-3.60;99.90
45319;DHT22;31057;48.498;32.260;2024-01-30T04:03:53;-3.60;99.90
45319;DHT22;31057;48.498;32.260;2024-01-30T04:05:55;-3.60;99.90
45319;DHT22;31057;48.498;32.260;2024-01-30T04:07:57;-3.70;99.90
45319;DHT22;31057;48.498;32.260;2024-01-30T04:09:58;-3.80;99.90
45319;DHT22;31057;48.498;32.260;2024-01-30T04:12:00;-3.80;99.90
45319;DHT22;31057;48.498;32.260;2024-01-30T04:14:04;-3.70;99.90
45319;DHT22;31057;48.498;32.260;2024-01-30T04:16:06;-3.70;99.90
45319;DHT22;31057;48.498;32.260;2024-01-30T04:18:08;-3.70;99.90
45319;DHT22;31057;48.498;32.260;2024-01-30T04:20:14;-3.80;99.90
45319;DHT22;31057;48.498;32.260;2024-01-30T04:22:17;-3.80;99.90
45319;DHT22;31057;48.498;32.260;2024-01-30T04:24:19;-3.80;99.90
45319;DHT22;31057;48.498;32.260;2024-01-30T04:26:21;-3.80;99.90
45319;DHT22;31057;48.498;32.260;2024-01-30T04:28:22;-3.80;99.90
45319;DHT22;31057;48.498;32.260;2024-01-30T04:30:24;-3.80;99.90
45319;DHT22;31057;48.498;32.260;2024-01-30T04:32:26;-3.80;99.90
45319;DHT22;31057;48.498;32.260;2024-01-30T04:34:28;-3.90;99.90
45319;DHT22;31057;48.498;32.260;2024-01-30T04:36:30;-3.90;99.90
45319;DHT22;31057;48.498;32.260;2024-01-30T04:38:32;-4.00;99.90
45319;DHT22;31057;48.498;32.260;2024-01-30T04:40:34;-4.00;99.90
45319;DHT22;31057;48.498;32.260;2024-01-30T04:42:36;-4.00;99.90
45319;DHT22;31057;48.498;32.260;2024-01-30T04:44:37;-3.90;99.90
45319;DHT22;31057;48.498;32.260;2024-01-30T04:46:39;-3.90;99.90
45319;DHT22;31057;48.498;32.260;2024-01-30T04:48:41;-3.90;99.90
45319;DHT22;31057;48.498;32.260;2024-01-30T04:50:43;-3.80;99.90
45319;DHT22;31057;48.498;32.260;2024-01-30T04:52:45;-3.80;99.90
45319;DHT22;31057;48.498;32.260;2024-01-30T04:54:47;-3.80;99.90
45319;DHT22;31057;48.498;32.260;2024-01-30T04:56:49;-3.80;99.90
45319;DHT22;31057;48.498;32.260;2024-01-30T04:58:51;-3.90;99.90
45319;DHT22;31057;48.498;32.260;2024-01-30T05:00:53;-3.80;99.90
45319;DHT22;31057;48.498;32.260;2024-01-30T05:02:55;-3.80;99.90
45319;DHT22;31057;48.498;32.260;2024-01-30T05:04:57;-3.80;99.90
45319;DHT22;31057;48.498;32.260;2024-01-30T05:06:59;-3.90;99.90
45319;DHT22;31057;48.498;32.260;2024-01-30T05:09:01;-3.90;99.90
45319;DHT22;31057;48.498;32.260;2024-01-30T05:11:04;-3.80;99.90
45319;DHT22;31057;48.498;32.260;2024-01-30T05:13:06;-4.00;99.90
45319;DHT22;31057;48.498;32.260;2024-01-30T05:15:08;-4.10;99.90
45319;DHT22;31057;48.498;32.260;2024-01-30T05:17:10;-4.10;99.90
45319;DHT22;31057;48.498;32.260;2024-01-30T05:19:14;-4.10;99.90
45319;DHT22;31057;48.498;32.260;2024-01-30T05:21:16;-4.10;99.90
45319;DHT22;31057;48.498;32.260;2024-01-30T05:23:18;-4.10;99.90
45319;DHT22;31057;48.498;32.260;2024-01-30T05:25:20;-4.00;99.90
45319;DHT22;31057;48.498;32.260;2024-01-30T05:27:22;-4.20;99.90
45319;DHT22;31057;48.498;32.260;2024-01-30T05:29:23;-4.10;99.90
45319;DHT22;31057;48.498;32.260;2024-01-30T05:31:26;-4.10;99.90
45319;DHT22;31057;48.498;32.260;2024-01-30T05:33:29;-4.10;99.90
45319;DHT22;31057;48.498;32.260;2024-01-30T05:35:31;-4.10;99.90
45319;DHT22;31057;48.498;32.260;2024-01-30T05:37:33;-4.10;99.90
45319;DHT22;31057;48.498;32.260;2024-01-30T05:39:35;-4.00;99.90
45319;DHT22;31057;48.498;32.260;2024-01-30T05:41:37;-4.00;99.90
45319;DHT22;31057;48.498;32.260;2024-01-30T05:43:39;-4.00;99.90
45319;DHT22;31057;48.498;32.260;2024-01-30T05:45:40;-4.00;99.90
45319;DHT22;31057;48.498;32.260;2024-01-30T05:47:42;-4.00;99.90
45319;DHT22;31057;48.498;32.260;2024-01-30T05:49:44;-3.90;99.90
45319;DHT22;31057;48.498;32.260;2024-01-30T05:51:46;-3.80;99.90
45319;DHT22;31057;48.498;32.260;2024-01-30T05:53:48;-3.80;99.90
45319;DHT22;31057;48.498;32.260;2024-01-30T05:55:50;-3.70;99.90
45319;DHT22;31057;48.498;32.260;2024-01-30T05:57:52;-3.70;99.90
45319;DHT22;31057;48.498;32.260;2024-01-30T05:59:54;-3.70;99.90
45319;DHT22;31057;48.498;32.260;2024-01-30T06:01:56;-3.60;99.90
45319;DHT22;31057;48.498;32.260;2024-01-30T06:03:58;-3.40;99.90
45319;DHT22;31057;48.498;32.260;2024-01-30T06:06:00;-3.40;99.90
45319;DHT22;31057;48.498;32.260;2024-01-30T06:08:02;-3.40;99.90
45319;DHT22;31057;48.498;32.260;2024-01-30T06:10:04;-3.50;99.90
45319;DHT22;31057;48.498;32.260;2024-01-30T06:12:06;-3.50;99.90
45319;DHT22;31057;48.498;32.260;2024-01-30T06:14:08;-3.30;99.90
45319;DHT22;31057;48.498;32.260;2024-01-30T06:16:10;-3.30;99.90
45319;DHT22;31057;48.498;32.260;2024-01-30T06:18:13;-3.20;99.90
45319;DHT22;31057;48.498;32.260;2024-01-30T06:20:15;-3.20;99.90
45319;DHT22;31057;48.498;32.260;2024-01-30T06:22:17;-3.20;99.90
45319;DHT22;31057;48.498;32.260;2024-01-30T06:24:19;-3.10;99.90
45319;DHT22;31057;48.498;32.260;2024-01-30T06:26:21;-3.10;99.90
45319;DHT22;31057;48.498;32.260;2024-01-30T06:28:23;-3.10;99.90
45319;DHT22;31057;48.498;32.260;2024-01-30T06:30:25;-2.90;99.90
45319;DHT22;31057;48.498;32.260;2024-01-30T06:32:27;-3.00;99.90
45319;DHT22;31057;48.498;32.260;2024-01-30T06:34:30;-2.90;99.90
45319;DHT22;31057;48.498;32.260;2024-01-30T06:36:32;-2.90;99.90
45319;DHT22;31057;48.498;32.260;2024-01-30T06:38:34;-2.80;99.90
45319;DHT22;31057;48.498;32.260;2024-01-30T06:40:36;-2.60;99.90
45319;DHT22;31057;48.498;32.260;2024-01-30T06:42:38;-2.50;99.90
45319;DHT22;31057;48.498;32.260;2024-01-30T06:44:39;-2.50;99.90
45319;DHT22;31057;48.498;32.260;2024-01-30T06:46:41;-2.40;99.90
45319;DHT22;31057;48.498;32.260;2024-01-30T06:48:43;-2.30;99.90
45319;DHT22;31057;48.498;32.260;2024-01-30T06:50:46;-2.30;99.90
45319;DHT22;31057;48.498;32.260;2024-01-30T06:52:49;-2.30;99.90
45319;DHT22;31057;48.498;32.260;2024-01-30T06:54:51;-2.20;99.90
45319;DHT22;31057;48.498;32.260;2024-01-30T06:56:53;-2.10;99.90
45319;DHT22;31057;48.498;32.260;2024-01-30T06:58:54;-2.10;99.90
45319;DHT22;31057;48.498;32.260;2024-01-30T07:00:56;-2.00;99.90
45319;DHT22;31057;48.498;32.260;2024-01-30T07:02:58;-1.90;99.90
45319;DHT22;31057;48.498;32.260;2024-01-30T07:05:00;-1.80;99.90
45319;DHT22;31057;48.498;32.260;2024-01-30T07:07:03;-1.70;99.90
45319;DHT22;31057;48.498;32.260;2024-01-30T07:09:06;-1.70;99.90
45319;DHT22;31057;48.498;32.260;2024-01-30T07:11:08;-1.60;99.90
45319;DHT22;31057;48.498;32.260;2024-01-30T07:13:10;-1.60;99.90
45319;DHT22;31057;48.498;32.260;2024-01-30T07:15:13;-1.50;99.90
45319;DHT22;31057;48.498;32.260;2024-01-30T07:17:18;-1.40;99.90
45319;DHT22;31057;48.498;32.260;2024-01-30T07:19:20;-1.40;99.90
45319;DHT22;31057;48.498;32.260;2024-01-30T07:21:22;-1.20;99.90
45319;DHT22;31057;48.498;32.260;2024-01-30T07:23:29;-1.20;99.90
45319;DHT22;31057;48.498;32.260;2024-01-30T07:25:31;-1.20;99.90
45319;DHT22;31057;48.498;32.260;2024-01-30T07:27:33;-1.10;99.90
45319;DHT22;31057;48.498;32.260;2024-01-30T07:29:35;-1.10;99.90
45319;DHT22;31057;48.498;32.260;2024-01-30T07:31:37;-1.00;99.90
45319;DHT22;31057;48.498;32.260;2024-01-30T07:33:39;-0.90;99.90
45319;DHT22;31057;48.498;32.260;2024-01-30T07:35:43;-0.80;99.90
45319;DHT22;31057;48.498;32.260;2024-01-30T07:37:45;-0.70;99.90
45319;DHT22;31057;48.498;32.260;2024-01-30T07:39:47;-0.60;99.90
45319;DHT22;31057;48.498;32.260;2024-01-30T07:41:49;-0.50;99.90
45319;DHT22;31057;48.498;32.260;2024-01-30T07:43:50;-0.50;99.90
45319;DHT22;31057;48.498;32.260;2024-01-30T07:45:52;-0.40;99.90
45319;DHT22;31057;48.498;32.260;2024-01-30T07:47:54;-0.40;99.90
45319;DHT22;31057;48.498;32.260;2024-01-30T07:49:56;-0.40;99.90
45319;DHT22;31057;48.498;32.260;2024-01-30T07:52:01;-0.20;99.90
45319;DHT22;31057;48.498;32.260;2024-01-30T07:54:03;-0.30;99.90
45319;DHT22;31057;48.498;32.260;2024-01-30T07:56:05;-0.40;99.90
45319;DHT22;31057;48.498;32.260;2024-01-30T07:58:07;-0.30;99.90
45319;DHT22;31057;48.498;32.260;2024-01-30T08:00:09;-0.10;99.90
45319;DHT22;31057;48.498;32.260;2024-01-30T08:02:14;0.00;99.90
45319;DHT22;31057;48.498;32.260;2024-01-30T08:04:16;0.00;99.90
45319;DHT22;31057;48.498;32.260;2024-01-30T08:06:19;0.10;99.90
45319;DHT22;31057;48.498;32.260;2024-01-30T08:08:21;0.30;99.90
45319;DHT22;31057;48.498;32.260;2024-01-30T08:10:24;0.30;99.90
45319;DHT22;31057;48.498;32.260;2024-01-30T08:12:26;0.30;99.90
45319;DHT22;31057;48.498;32.260;2024-01-30T08:14:28;0.50;99.90
45319;DHT22;31057;48.498;32.260;2024-01-30T08:16:30;0.40;99.90
45319;DHT22;31057;48.498;32.260;2024-01-30T08:18:32;0.50;99.90
45319;DHT22;31057;48.498;32.260;2024-01-30T08:20:34;0.60;99.90
45319;DHT22;31057;48.498;32.260;2024-01-30T08:22:37;0.60;99.90
45319;DHT22;31057;48.498;32.260;2024-01-30T08:24:40;0.60;99.90
45319;DHT22;31057;48.498;32.260;2024-01-30T08:26:42;0.70;99.90
45319;DHT22;31057;48.498;32.260;2024-01-30T08:28:44;0.70;99.90
45319;DHT22;31057;48.498;32.260;2024-01-30T08:30:46;0.70;99.90
45319;DHT22;31057;48.498;32.260;2024-01-30T08:32:48;0.80;99.90
45319;DHT22;31057;48.498;32.260;2024-01-30T08:34:50;0.90;99.90
45319;DHT22;31057;48.498;32.260;2024-01-30T08:36:52;1.00;99.90
45319;DHT22;31057;48.498;32.260;2024-01-30T08:38:54;1.00;99.90
45319;DHT22;31057;48.498;32.260;2024-01-30T08:41:02;0.90;99.90
45319;DHT22;31057;48.498;32.260;2024-01-30T08:43:04;0.70;99.90
45319;DHT22;31057;48.498;32.260;2024-01-30T08:45:06;0.70;99.90
45319;DHT22;31057;48.498;32.260;2024-01-30T08:47:08;0.80;99.90
45319;DHT22;31057;48.498;32.260;2024-01-30T08:49:10;0.90;99.90
45319;DHT22;31057;48.498;32.260;2024-01-30T08:51:14;0.80;99.90
45319;DHT22;31057;48.498;32.260;2024-01-30T08:53:17;0.80;99.90
45319;DHT22;31057;48.498;32.260;2024-01-30T08:55:19;1.00;99.90
45319;DHT22;31057;48.498;32.260;2024-01-30T08:57:21;0.80;99.90
45319;DHT22;31057;48.498;32.260;2024-01-30T08:59:22;0.80;99.90
45319;DHT22;31057;48.498;32.260;2024-01-30T09:01:25;1.00;99.90
45319;DHT22;31057;48.498;32.260;2024-01-30T09:03:27;1.20;99.90
45319;DHT22;31057;48.498;32.260;2024-01-30T09:05:29;1.20;99.90
45319;DHT22;31057;48.498;32.260;2024-01-30T09:07:31;1.20;99.90
45319;DHT22;31057;48.498;32.260;2024-01-30T09:09:33;1.00;99.90
45319;DHT22;31057;48.498;32.260;2024-01-30T09:11:35;1.20;99.90
45319;DHT22;31057;48.498;32.260;2024-01-30T09:13:37;1.20;99.90
45319;DHT22;31057;48.498;32.260;2024-01-30T09:15:40;1.20;99.90
45319;DHT22;31057;48.498;32.260;2024-01-30T09:17:42;1.40;99.90
45319;DHT22;31057;48.498;32.260;2024-01-30T09:19:45;1.30;99.90
45319;DHT22;31057;48.498;32.260;2024-01-30T09:21:47;1.50;99.90
45319;DHT22;31057;48.498;32.260;2024-01-30T09:23:49;1.50;99.90
45319;DHT22;31057;48.498;32.260;2024-01-30T09:25:50;1.60;99.90
45319;DHT22;31057;48.498;32.260;2024-01-30T09:27:52;1.60;99.90
45319;DHT22;31057;48.498;32.260;2024-01-30T09:29:54;1.50;99.90
45319;DHT22;31057;48.498;32.260;2024-01-30T09:31:56;1.70;99.90
45319;DHT22;31057;48.498;32.260;2024-01-30T09:33:58;1.70;99.90
45319;DHT22;31057;48.498;32.260;2024-01-30T09:36:00;1.70;99.90
45319;DHT22;31057;48.498;32.260;2024-01-30T09:38:02;1.90;99.90
45319;DHT22;31057;48.498;32.260;2024-01-30T09:40:04;1.80;99.90
45319;DHT22;31057;48.498;32.260;2024-01-30T09:44:12;1.70;99.90
45319;DHT22;31057;48.498;32.260;2024-01-30T09:46:15;1.80;99.90
45319;DHT22;31057;48.498;32.260;2024-01-30T09:48:18;2.00;99.90
45319;DHT22;31057;48.498;32.260;2024-01-30T09:50:20;2.00;99.90
45319;DHT22;31057;48.498;32.260;2024-01-30T09:52:22;2.10;99.90
45319;DHT22;31057;48.498;32.260;2024-01-30T09:54:24;2.30;99.90
45319;DHT22;31057;48.498;32.260;2024-01-30T09:56:26;2.20;99.90
45319;DHT22;31057;48.498;32.260;2024-01-30T09:58:28;2.00;99.90
45319;DHT22;31057;48.498;32.260;2024-01-30T10:00:30;2.00;99.90
45319;DHT22;31057;48.498;32.260;2024-01-30T10:02:32;1.90;99.90
45319;DHT22;31057;48.498;32.260;2024-01-30T10:04:34;1.90;99.90
45319;DHT22;31057;48.498;32.260;2024-01-30T10:06:37;2.00;99.90
45319;DHT22;31057;48.498;32.260;2024-01-30T10:08:38;1.90;99.90
45319;DHT22;31057;48.498;32.260;2024-01-30T10:10:41;1.90;99.90
45319;DHT22;31057;48.498;32.260;2024-01-30T10:12:43;1.80;99.90
45319;DHT22;31057;48.498;32.260;2024-01-30T10:14:45;1.90;99.90
45319;DHT22;31057;48.498;32.260;2024-01-30T10:16:47;1.90;99.90
45319;DHT22;31057;48.498;32.260;2024-01-30T10:18:49;2.00;99.90
45319;DHT22;31057;48.498;32.260;2024-01-30T10:20:51;1.90;99.90
45319;DHT22;31057;48.498;32.260;2024-01-30T10:22:53;2.00;99.90
45319;DHT22;31057;48.498;32.260;2024-01-30T10:24:55;1.80;99.90
45319;DHT22;31057;48.498;32.260;2024-01-30T10:26:56;2.00;99.90
45319;DHT22;31057;48.498;32.260;2024-01-30T10:28:59;2.00;99.90
45319;DHT22;31057;48.498;32.260;2024-01-30T10:31:01;2.00;99.90
45319;DHT22;31057;48.498;32.260;2024-01-30T10:33:07;2.10;99.90
45319;DHT22;31057;48.498;32.260;2024-01-30T10:35:09;2.30;99.90
45319;DHT22;31057;48.498;32.260;2024-01-30T10:37:11;2.30;99.90
45319;DHT22;31057;48.498;32.260;2024-01-30T10:39:19;2.20;99.90
45319;DHT22;31057;48.498;32.260;2024-01-30T10:41:25;2.60;99.90
45319;DHT22;31057;48.498;32.260;2024-01-30T10:43:31;2.40;99.90
45319;DHT22;31057;48.498;32.260;2024-01-30T10:45:34;2.30;99.90
45319;DHT22;31057;48.498;32.260;2024-01-30T10:47:37;2.30;99.90
45319;DHT22;31057;48.498;32.260;2024-01-30T10:49:40;2.20;99.90
45319;DHT22;31057;48.498;32.260;2024-01-30T10:51:44;2.10;99.90
45319;DHT22;31057;48.498;32.260;2024-01-30T10:53:47;2.40;99.90
45319;DHT22;31057;48.498;32.260;2024-01-30T10:55:51;2.50;99.90
45319;DHT22;31057;48.498;32.260;2024-01-30T10:57:53;2.70;99.90
45319;DHT22;31057;48.498;32.260;2024-01-30T10:59:58;2.80;99.90
45319;DHT22;31057;48.498;32.260;2024-01-30T11:02:01;2.70;99.90
45319;DHT22;31057;48.498;32.260;2024-01-30T11:04:03;2.90;99.90
45319;DHT22;31057;48.498;32.260;2024-01-30T11:06:10;2.90;99.90
45319;DHT22;31057;48.498;32.260;2024-01-30T11:08:15;2.70;99.90
45319;DHT22;31057;48.498;32.260;2024-01-30T11:10:24;3.00;99.90
45319;DHT22;31057;48.498;32.260;2024-01-30T11:12:27;2.70;99.90
45319;DHT22;31057;48.498;32.260;2024-01-30T11:14:29;2.40;99.90
45319;DHT22;31057;48.498;32.260;2024-01-30T11:16:32;2.50;99.90
45319;DHT22;31057;48.498;32.260;2024-01-30T11:18:35;2.40;99.90
45319;DHT22;31057;48.498;32.260;2024-01-30T11:20:37;2.50;99.90
45319;DHT22;31057;48.498;32.260;2024-01-30T11:22:40;2.50;99.90
45319;DHT22;31057;48.498;32.260;2024-01-30T11:24:42;2.70;99.90
45319;DHT22;31057;48.498;32.260;2024-01-30T11:26:44;2.60;99.90
45319;DHT22;31057;48.498;32.260;2024-01-30T11:28:52;2.60;99.90
45319;DHT22;31057;48.498;32.260;2024-01-30T11:31:02;2.40;99.90
45319;DHT22;31057;48.498;32.260;2024-01-30T11:33:05;2.50;99.90
45319;DHT22;31057;48.498;32.260;2024-01-30T11:35:08;2.60;99.90
45319;DHT22;31057;48.498;32.260;2024-01-30T11:37:13;2.50;99.90
45319;DHT22;31057;48.498;32.260;2024-01-30T11:39:17;2.50;99.90
45319;DHT22;31057;48.498;32.260;2024-01-30T11:41:19;2.60;99.90
45319;DHT22;31057;48.498;32.260;2024-01-30T11:43:21;2.70;99.90
45319;DHT22;31057;48.498;32.260;2024-01-30T11:45:22;2.80;99.90
45319;DHT22;31057;48.498;32.260;2024-01-30T11:47:24;2.80;99.90
45319;DHT22;31057;48.498;32.260;2024-01-30T11:49:26;2.90;99.90
45319;DHT22;31057;48.498;32.260;2024-01-30T11:51:30;2.90;99.90
45319;DHT22;31057;48.498;32.260;2024-01-30T11:53:32;2.70;99.90
45319;DHT22;31057;48.498;32.260;2024-01-30T11:55:34;2.70;99.90
45319;DHT22;31057;48.498;32.260;2024-01-30T11:57:41;2.80;99.90
45319;DHT22;31057;48.498;32.260;2024-01-30T11:59:43;2.90;99.90
45319;DHT22;31057;48.498;32.260;2024-01-30T12:01:45;2.90;99.90
45319;DHT22;31057;48.498;32.260;2024-01-30T12:03:50;3.00;99.90
45319;DHT22;31057;48.498;32.260;2024-01-30T12:05:56;2.90;99.90
45319;DHT22;31057;48.498;32.260;2024-01-30T12:07:59;2.70;99.90
45319;DHT22;31057;48.498;32.260;2024-01-30T12:10:03;3.00;99.90
45319;DHT22;31057;48.498;32.260;2024-01-30T12:12:06;3.00;99.90
45319;DHT22;31057;48.498;32.260;2024-01-30T12:14:08;3.00;99.90
45319;DHT22;31057;48.498;32.260;2024-01-30T12:16:10;3.00;99.90
45319;DHT22;31057;48.498;32.260;2024-01-30T12:18:13;3.00;99.90
45319;DHT22;31057;48.498;32.260;2024-01-30T12:20:17;2.90;99.90
45319;DHT22;31057;48.498;32.260;2024-01-30T12:22:19;2.90;99.90
45319;DHT22;31057;48.498;32.260;2024-01-30T12:24:21;2.90;99.90
45319;DHT22;31057;48.498;32.260;2024-01-30T12:26:25;2.90;99.90
45319;DHT22;31057;48.498;32.260;2024-01-30T12:28:27;2.90;99.90
45319;DHT22;31057;48.498;32.260;2024-01-30T12:30:29;2.90;99.90
45319;DHT22;31057;48.498;32.260;2024-01-30T12:32:31;3.10;99.90
45319;DHT22;31057;48.498;32.260;2024-01-30T12:34:33;3.00;99.90
45319;DHT22;31057;48.498;32.260;2024-01-30T12:36:50;2.80;99.90
45319;DHT22;31057;48.498;32.260;2024-01-30T12:38:52;3.00;99.90
45319;DHT22;31057;48.498;32.260;2024-01-30T12:40:54;2.90;99.90
45319;DHT22;31057;48.498;32.260;2024-01-30T12:42:57;2.90;99.90
45319;DHT22;31057;48.498;32.260;2024-01-30T12:44:59;2.80;99.90
45319;DHT22;31057;48.498;32.260;2024-01-30T12:47:04;3.00;99.90
45319;DHT22;31057;48.498;32.260;2024-01-30T12:49:06;3.00;99.90